Time;durP1;ratioP1;P1;durP2;ratioP2;P2;SDS_P1;SDS_P2;PMS_P1;PMS_P2;Temp;Humidity;BMP_temperature;BMP_pressure;BME280_temperature;BME280_humidity;BME280_pressure;Samples;Min_cycle;Max_cycle;Signal;HPM_P1;HPM_P2
2024/01/10 00:00:22;;;;;;;21.90;12.63;;;-6.00;93.40;;;;;;4916420;29;20239;-88
2024/01/10 00:02:48;;;;;;;24.83;13.50;;;-6.00;93.30;;;;;;4916664;29;20289;-87
2024/01/10 00:05:14;;;;;;;21.77;12.00;;;-6.00;93.30;;;;;;4916252;29;20609;-87
2024/01/10 00:07:39;;;;;;;21.47;12.23;;;-5.90;92.90;;;;;;4916357;29;20207;-87
2024/01/10 00:10:05;;;;;;;26.00;13.50;;;-5.90;92.70;;;;;;4915815;29;20277;-87
2024/01/10 00:12:35;;;;;;;23.37;13.93;;;-5.90;92.90;;;;;;4915851;29;20195;-87
2024/01/10 00:15:05;;;;;;;27.03;13.70;;;-6.00;93.20;;;;;;4916841;29;20183;-87
2024/01/10 00:17:31;;;;;;;23.33;14.07;;;-6.10;93.20;;;;;;4916027;29;20242;-87
2024/01/10 00:19:57;;;;;;;20.57;12.80;;;-6.00;93.10;;;;;;4916065;29;20218;-87
2024/01/10 00:22:23;;;;;;;25.83;13.67;;;-6.10;93.30;;;;;;4915537;29;20260;-87
2024/01/10 00:24:48;;;;;;;22.37;12.63;;;-6.10;93.70;;;;;;4915784;29;20247;-87
2024/01/10 00:27:15;;;;;;;23.20;13.43;;;-6.00;93.70;;;;;;4916143;29;20230;-87
2024/01/10 00:29:41;;;;;;;21.97;12.53;;;-6.10;93.70;;;;;;4916482;29;20304;-87
2024/01/10 00:32:07;;;;;;;26.03;12.23;;;-6.10;93.90;;;;;;4915658;29;20206;-87
2024/01/10 00:34:32;;;;;;;21.07;12.03;;;-6.10;93.90;;;;;;4915914;29;20195;-87
2024/01/10 00:36:58;;;;;;;24.57;12.77;;;-6.10;94.00;;;;;;4915579;29;20293;-87
2024/01/10 00:39:23;;;;;;;24.43;13.07;;;-6.10;94.10;;;;;;4916497;29;20186;-87
2024/01/10 00:41:49;;;;;;;18.90;11.50;;;-6.10;94.30;;;;;;4916307;29;20281;-85
2024/01/10 00:44:14;;;;;;;19.43;10.87;;;-6.10;94.10;;;;;;4916212;29;20187;-84
2024/01/10 00:46:40;;;;;;;18.73;11.50;;;-6.10;93.80;;;;;;4915458;29;20203;-84
2024/01/10 00:49:06;;;;;;;19.20;11.73;;;-6.00;93.60;;;;;;4916641;29;20183;-84
2024/01/10 00:51:31;;;;;;;18.60;11.83;;;-6.00;93.60;;;;;;4916103;29;20187;-85
2024/01/10 00:53:57;;;;;;;18.10;11.23;;;-6.00;93.80;;;;;;4917432;29;20182;-85
2024/01/10 00:56:23;;;;;;;19.03;12.13;;;-6.00;93.70;;;;;;4919085;29;20528;-85
2024/01/10 00:58:48;;;;;;;20.20;12.03;;;-6.00;93.70;;;;;;4919390;29;20193;-85
2024/01/10 01:01:14;;;;;;;20.47;11.27;;;-6.00;93.50;;;;;;4919317;29;20186;-85
2024/01/10 01:03:39;;;;;;;19.67;10.97;;;-6.00;93.10;;;;;;4919035;29;20207;-85
2024/01/10 01:06:06;;;;;;;21.17;11.37;;;-5.90;92.80;;;;;;4919356;29;20186;-85
2024/01/10 01:08:31;;;;;;;19.20;11.37;;;-5.90;92.50;;;;;;4919329;29;20266;-85
2024/01/10 01:10:57;;;;;;;18.77;11.00;;;-5.80;92.40;;;;;;4919604;29;20180;-85
2024/01/10 01:13:22;;;;;;;19.70;11.40;;;-5.90;92.70;;;;;;4919508;29;20182;-85
2024/01/10 01:15:48;;;;;;;20.47;11.07;;;-5.90;93.10;;;;;;4919027;29;20214;-85
2024/01/10 01:18:14;;;;;;;18.73;10.97;;;-6.00;93.60;;;;;;4918765;29;20251;-85
2024/01/10 01:20:40;;;;;;;20.73;12.13;;;-6.00;93.10;;;;;;4918523;29;20202;-85
2024/01/10 01:23:05;;;;;;;19.63;11.53;;;-6.00;93.20;;;;;;4919704;29;20202;-85
2024/01/10 01:25:31;;;;;;;20.10;11.73;;;-6.00;93.40;;;;;;4918588;29;20198;-85
2024/01/10 01:27:56;;;;;;;20.93;11.07;;;-6.00;93.50;;;;;;4919018;29;20286;-85
2024/01/10 01:30:22;;;;;;;19.20;11.70;;;-6.00;93.50;;;;;;4919309;29;20178;-85
2024/01/10 01:32:48;;;;;;;21.93;11.23;;;-6.00;93.40;;;;;;4918949;29;20183;-85
2024/01/10 01:35:13;;;;;;;21.17;11.23;;;-6.10;93.60;;;;;;4919361;29;20183;-85
2024/01/10 01:37:39;;;;;;;19.20;11.37;;;-6.00;93.50;;;;;;4918967;29;20228;-86
2024/01/10 01:40:05;;;;;;;20.40;10.90;;;-6.00;93.50;;;;;;4918673;29;20186;-85
2024/01/10 01:42:32;;;;;;;19.93;11.60;;;-6.10;93.60;;;;;;4918161;29;20211;-85
2024/01/10 01:44:57;;;;;;;20.27;11.70;;;-6.10;93.80;;;;;;4918188;29;20209;-85
2024/01/10 01:47:27;;;;;;;20.30;11.80;;;-6.10;94.00;;;;;;4918198;29;20231;-85
2024/01/10 01:49:52;;;;;;;21.40;11.33;;;-6.20;94.40;;;;;;4918995;29;20268;-85
2024/01/10 01:52:18;;;;;;;22.23;12.63;;;-6.20;94.60;;;;;;4919266;29;20218;-85
2024/01/10 01:54:43;;;;;;;20.43;11.53;;;-6.20;94.60;;;;;;4918915;29;20298;-85
2024/01/10 01:57:09;;;;;;;22.73;12.47;;;-6.30;94.60;;;;;;4917948;29;20211;-86
2024/01/10 01:59:35;;;;;;;23.10;12.67;;;-6.30;94.80;;;;;;4918506;29;20290;-85
2024/01/10 03:02:51;;;;;;;21.13;11.97;;;-6.30;95.20;;;;;;1393540;23;20502;-86
2024/01/10 03:05:16;;;;;;;23.53;12.87;;;-6.30;95.10;;;;;;4953440;29;20201;-86
2024/01/10 03:07:42;;;;;;;24.27;12.83;;;-6.20;95.00;;;;;;4955584;28;20184;-86
2024/01/10 03:10:08;;;;;;;23.87;13.43;;;-6.20;94.80;;;;;;4955106;29;20244;-85
2024/01/10 03:12:36;;;;;;;22.33;12.80;;;-6.20;95.00;;;;;;4955896;28;20217;-85
2024/01/10 03:15:03;;;;;;;21.23;11.40;;;-6.20;95.10;;;;;;4954988;29;20218;-85
2024/01/10 03:17:28;;;;;;;27.73;15.87;;;-6.20;95.40;;;;;;4954266;28;20185;-85
2024/01/10 03:19:54;;;;;;;26.20;14.23;;;-6.20;95.70;;;;;;4954583;28;20206;-86
2024/01/10 03:22:19;;;;;;;27.80;14.93;;;-6.30;96.20;;;;;;4954498;29;20213;-86
2024/01/10 03:24:45;;;;;;;21.33;13.20;;;-6.30;96.50;;;;;;4954450;29;20209;-86
2024/01/10 03:27:10;;;;;;;26.87;14.87;;;-6.40;96.50;;;;;;4954490;29;20189;-86
2024/01/10 03:29:36;;;;;;;25.97;14.33;;;-6.40;96.60;;;;;;4954478;28;20264;-86
2024/01/10 03:32:02;;;;;;;24.47;13.43;;;-6.40;96.80;;;;;;4954443;29;20193;-86
2024/01/10 03:34:27;;;;;;;25.80;14.40;;;-6.40;96.90;;;;;;4954307;29;20185;-86
2024/01/10 03:36:53;;;;;;;22.67;13.10;;;-6.40;97.20;;;;;;4954738;29;20185;-86
2024/01/10 03:39:18;;;;;;;25.93;15.00;;;-6.40;96.80;;;;;;4954575;28;20589;-85
2024/01/10 03:41:47;;;;;;;29.70;16.47;;;-6.50;96.70;;;;;;4955362;29;20189;-85
2024/01/10 03:44:12;;;;;;;25.07;14.70;;;-6.50;97.00;;;;;;4954247;29;20178;-85
2024/01/10 03:46:38;;;;;;;27.10;13.90;;;-6.50;97.10;;;;;;4954595;29;20188;-86
2024/01/10 03:49:04;;;;;;;26.17;14.13;;;-6.50;97.30;;;;;;4954222;28;20208;-86
2024/01/10 03:51:29;;;;;;;21.70;11.53;;;-6.50;97.60;;;;;;4954190;29;20236;-86
2024/01/10 03:53:55;;;;;;;22.00;11.67;;;-6.40;97.40;;;;;;4954292;29;20177;-86
2024/01/10 03:56:21;;;;;;;22.97;11.60;;;-6.40;96.90;;;;;;4954283;29;20178;-85
2024/01/10 03:58:49;;;;;;;18.37;10.70;;;-6.40;96.50;;;;;;4954076;28;20197;-85
2024/01/10 04:01:15;;;;;;;22.40;11.80;;;-6.30;96.00;;;;;;4954100;29;20205;-85
2024/01/10 04:03:42;;;;;;;18.40;11.03;;;-6.30;96.10;;;;;;4953916;28;20255;-85
2024/01/10 04:06:07;;;;;;;18.80;11.30;;;-6.30;96.20;;;;;;4954097;28;20213;-85
2024/01/10 04:08:33;;;;;;;23.83;11.43;;;-6.30;96.60;;;;;;4954071;28;20224;-85
2024/01/10 04:10:59;;;;;;;18.37;10.80;;;-6.40;97.10;;;;;;4954025;29;20181;-85
2024/01/10 04:13:24;;;;;;;19.40;11.23;;;-6.40;97.40;;;;;;4954791;29;20268;-85
2024/01/10 04:15:51;;;;;;;16.83;10.30;;;-6.40;97.50;;;;;;4954027;29;20186;-85
2024/01/10 04:18:17;;;;;;;21.80;11.80;;;-6.40;97.60;;;;;;4954258;28;20205;-84
2024/01/10 04:20:43;;;;;;;20.07;11.50;;;-6.40;97.70;;;;;;4954129;29;20182;-84
2024/01/10 04:23:09;;;;;;;19.27;11.07;;;-6.40;97.70;;;;;;4953964;29;20221;-84
2024/01/10 04:25:35;;;;;;;18.93;11.50;;;-6.40;97.40;;;;;;4953934;29;20686;-84
2024/01/10 04:28:01;;;;;;;22.03;11.50;;;-6.40;97.30;;;;;;4955091;28;20284;-84
2024/01/10 04:30:27;;;;;;;18.40;11.17;;;-6.40;97.40;;;;;;4958039;29;20312;-84
2024/01/10 04:32:52;;;;;;;20.17;10.97;;;-6.50;97.40;;;;;;4957694;29;20252;-86
2024/01/10 04:35:18;;;;;;;18.57;11.03;;;-6.50;97.50;;;;;;4958038;29;20192;-85
2024/01/10 04:37:44;;;;;;;20.37;11.77;;;-6.50;97.70;;;;;;4957500;28;20218;-85
2024/01/10 04:40:09;;;;;;;19.70;11.07;;;-6.50;98.00;;;;;;4957641;29;20182;-85
2024/01/10 04:42:35;;;;;;;19.50;11.70;;;-6.60;98.10;;;;;;4958891;28;20197;-85
2024/01/10 04:45:01;;;;;;;22.07;12.40;;;-6.60;98.40;;;;;;4958919;28;20666;-85
2024/01/10 04:47:26;;;;;;;20.60;11.10;;;-6.60;98.40;;;;;;4957659;29;20182;-85
2024/01/10 04:49:52;;;;;;;24.20;11.93;;;-6.60;98.40;;;;;;4957376;28;20698;-85
2024/01/10 04:52:18;;;;;;;25.40;13.33;;;-6.60;98.50;;;;;;4958040;29;20205;-85
2024/01/10 04:54:43;;;;;;;30.57;19.07;;;-6.60;98.50;;;;;;4957329;29;20197;-85
2024/01/10 04:57:09;;;;;;;33.73;20.73;;;-6.70;98.90;;;;;;4958046;29;20189;-85
2024/01/10 04:59:34;;;;;;;29.50;17.70;;;-6.70;98.70;;;;;;4957580;28;20701;-85
2024/01/10 05:02:00;;;;;;;30.73;18.00;;;-6.70;98.80;;;;;;4957196;29;20330;-85
2024/01/10 05:04:26;;;;;;;35.20;19.10;;;-6.70;98.80;;;;;;4957099;29;20198;-85
2024/01/10 05:06:51;;;;;;;30.23;17.23;;;-6.70;98.70;;;;;;4957132;28;20205;-85
2024/01/10 05:09:17;;;;;;;27.13;15.87;;;-6.60;98.80;;;;;;4956914;28;20194;-85
2024/01/10 05:11:47;;;;;;;27.97;14.60;;;-6.70;98.60;;;;;;4957488;29;20170;-85
2024/01/10 05:14:16;;;;;;;27.93;15.17;;;-6.60;98.70;;;;;;4957429;29;20181;-85
2024/01/10 05:16:41;;;;;;;22.67;14.17;;;-6.60;98.70;;;;;;4957843;29;20184;-85
2024/01/10 05:19:10;;;;;;;24.43;13.00;;;-6.60;98.70;;;;;;4956670;29;20197;-85
2024/01/10 05:21:37;;;;;;;23.13;12.57;;;-6.60;98.70;;;;;;4957014;29;20209;-86
2024/01/10 05:24:03;;;;;;;23.07;12.07;;;-6.60;98.60;;;;;;4956796;29;20192;-86
2024/01/10 05:26:29;;;;;;;19.90;11.57;;;-6.60;98.70;;;;;;4958191;28;20192;-86
2024/01/10 05:28:55;;;;;;;18.97;12.07;;;-6.60;98.70;;;;;;4957963;29;20257;-86
2024/01/10 05:31:23;;;;;;;21.87;11.80;;;-6.60;98.80;;;;;;4956539;29;20273;-86
2024/01/10 05:33:53;;;;;;;18.80;11.43;;;-6.50;98.90;;;;;;4957720;28;20193;-86
2024/01/10 05:36:22;;;;;;;21.70;11.93;;;-6.50;98.80;;;;;;4956470;29;20650;-86
2024/01/10 05:38:48;;;;;;;20.30;11.50;;;-6.50;98.80;;;;;;4957670;28;20198;-86
2024/01/10 05:41:14;;;;;;;19.10;11.27;;;-6.40;98.80;;;;;;4956447;28;20182;-86
2024/01/10 05:43:40;;;;;;;23.77;12.10;;;-6.30;98.80;;;;;;4956354;29;20205;-84
2024/01/10 05:46:06;;;;;;;19.47;11.80;;;-6.30;98.50;;;;;;4956494;29;20177;-84
2024/01/10 05:48:32;;;;;;;18.57;11.43;;;-6.30;98.50;;;;;;4956378;29;20209;-84
2024/01/10 05:50:58;;;;;;;23.63;11.90;;;-6.30;98.40;;;;;;4958424;28;20178;-84
2024/01/10 05:53:26;;;;;;;19.57;11.90;;;-6.30;98.50;;;;;;4957598;29;20216;-84
2024/01/10 05:55:52;;;;;;;20.97;11.30;;;-6.30;98.60;;;;;;4956562;29;20178;-83
2024/01/10 05:58:18;;;;;;;17.93;10.77;;;-6.30;98.60;;;;;;4957181;29;20212;-84
2024/01/10 06:00:44;;;;;;;20.10;11.37;;;-6.30;98.60;;;;;;4957374;29;20182;-84
2024/01/10 06:03:09;;;;;;;21.37;11.73;;;-6.30;98.50;;;;;;4956522;29;20213;-83
2024/01/10 06:05:35;;;;;;;22.00;11.60;;;-6.30;98.50;;;;;;4957922;28;20733;-85
2024/01/10 06:08:04;;;;;;;20.57;12.33;;;-6.30;98.30;;;;;;4956369;29;20201;-85
2024/01/10 06:10:32;;;;;;;20.87;12.43;;;-6.30;98.30;;;;;;4955924;29;20209;-85
2024/01/10 06:12:58;;;;;;;19.30;11.03;;;-6.30;98.50;;;;;;4956194;29;20209;-85
2024/01/10 06:15:24;;;;;;;22.23;12.33;;;-6.30;98.50;;;;;;4955838;29;20185;-85
2024/01/10 06:17:49;;;;;;;20.13;11.17;;;-6.30;98.70;;;;;;4956348;28;20203;-85
2024/01/10 06:20:15;;;;;;;19.30;12.03;;;-6.40;98.50;;;;;;4956380;29;20193;-85
2024/01/10 06:22:41;;;;;;;21.30;12.07;;;-6.40;98.50;;;;;;4955788;29;20232;-86
2024/01/10 06:25:07;;;;;;;21.40;11.60;;;-6.40;98.70;;;;;;4955665;29;20177;-85
2024/01/10 06:27:33;;;;;;;24.90;13.93;;;-6.40;98.80;;;;;;4955673;29;20229;-85
2024/01/10 06:29:59;;;;;;;29.87;14.63;;;-6.40;99.00;;;;;;4955589;29;20197;-85
2024/01/10 06:32:25;;;;;;;63.87;25.73;;;-6.40;99.10;;;;;;4955501;29;20189;-85
2024/01/10 06:34:51;;;;;;;39.17;17.37;;;-6.40;99.10;;;;;;4955655;29;20188;-85
2024/01/10 06:37:17;;;;;;;36.37;18.17;;;-6.40;98.90;;;;;;4955658;29;20173;-85
2024/01/10 06:39:43;;;;;;;41.63;20.13;;;-6.40;99.40;;;;;;4955399;29;20284;-85
2024/01/10 06:42:11;;;;;;;43.83;21.20;;;-6.50;99.20;;;;;;4955628;29;20201;-85
2024/01/10 06:44:37;;;;;;;28.80;16.07;;;-6.40;99.20;;;;;;4955418;29;20221;-85
2024/01/10 06:47:03;;;;;;;32.40;17.57;;;-6.50;99.30;;;;;;4955891;29;20181;-85
2024/01/10 06:49:29;;;;;;;31.60;17.60;;;-6.50;99.40;;;;;;4955029;29;20201;-85
2024/01/10 06:51:55;;;;;;;36.60;20.00;;;-6.50;99.70;;;;;;4955668;28;20178;-85
2024/01/10 06:54:21;;;;;;;30.43;18.43;;;-6.50;99.80;;;;;;4955033;29;20181;-85
2024/01/10 06:56:47;;;;;;;33.63;19.57;;;-6.50;99.90;;;;;;4955597;29;20188;-86
2024/01/10 06:59:12;;;;;;;28.73;17.53;;;-6.60;99.90;;;;;;4955140;29;20208;-85
2024/01/10 07:01:39;;;;;;;32.87;17.30;;;-6.60;99.90;;;;;;4956393;28;20265;-85
2024/01/10 07:04:06;;;;;;;24.63;14.30;;;-6.60;99.90;;;;;;4955051;29;20260;-84
2024/01/10 07:06:32;;;;;;;32.90;18.40;;;-6.60;99.90;;;;;;4956960;28;20161;-85
2024/01/10 07:08:58;;;;;;;25.93;14.60;;;-6.60;99.90;;;;;;4954767;29;20212;-85
2024/01/10 07:11:24;;;;;;;22.30;13.53;;;-6.50;99.90;;;;;;4955630;29;20205;-85
2024/01/10 07:13:50;;;;;;;22.37;13.33;;;-6.50;99.90;;;;;;4956135;28;20193;-85
2024/01/10 07:16:16;;;;;;;23.47;12.33;;;-6.40;99.90;;;;;;4955169;29;20181;-87
2024/01/10 07:18:43;;;;;;;22.10;12.83;;;-6.40;99.90;;;;;;4955139;29;20206;-87
2024/01/10 07:21:10;;;;;;;21.47;12.17;;;-6.40;99.90;;;;;;4955048;29;20236;-87
2024/01/10 07:23:40;;;;;;;20.23;12.27;;;-6.40;99.90;;;;;;4954677;29;20248;-87
